sensor_id;sensor_type;location;lat;lon;timestamp;temperature;humidity
14409;DHT22;7289;50.706;4.992;2023-11-21T09:02:01;11.20;99.90
14409;DHT22;7289;50.706;4.992;2023-11-21T09:04:29;11.20;99.90
14409;DHT22;7289;50.706;4.992;2023-11-21T09:06:58;11.40;99.90
14409;DHT22;7289;50.706;4.992;2023-11-21T09:09:27;11.50;99.90
14409;DHT22;7289;50.706;4.992;2023-11-21T09:11:57;11.70;99.90
14409;DHT22;7289;50.706;4.992;2023-11-21T09:14:27;12.00;99.90
14409;DHT22;7289;50.706;4.992;2023-11-21T09:16:56;12.10;99.90
14409;DHT22;7289;50.706;4.992;2023-11-21T09:19:26;12.30;99.90
14409;DHT22;7289;50.706;4.992;2023-11-21T09:21:54;12.50;99.90
14409;DHT22;7289;50.706;4.992;2023-11-21T09:24:24;12.60;99.90
14409;DHT22;7289;50.706;4.992;2023-11-21T09:26:53;12.70;99.90
14409;DHT22;7289;50.706;4.992;2023-11-21T09:29:21;12.80;99.90
14409;DHT22;7289;50.706;4.992;2023-11-21T09:31:49;13.00;99.90
14409;DHT22;7289;50.706;4.992;2023-11-21T09:34:18;13.00;99.90
14409;DHT22;7289;50.706;4.992;2023-11-21T09:36:48;13.00;99.90
14409;DHT22;7289;50.706;4.992;2023-11-21T09:39:17;13.00;99.90
14409;DHT22;7289;50.706;4.992;2023-11-21T09:41:49;12.90;99.90
14409;DHT22;7289;50.706;4.992;2023-11-21T09:44:25;12.80;99.90
14409;DHT22;7289;50.706;4.992;2023-11-21T09:47:00;12.80;99.90
14409;DHT22;7289;50.706;4.992;2023-11-21T09:49:28;12.80;99.90
14409;DHT22;7289;50.706;4.992;2023-11-21T09:52:03;12.80;99.90
14409;DHT22;7289;50.706;4.992;2023-11-21T09:54:33;12.70;99.90
14409;DHT22;7289;50.706;4.992;2023-11-21T09:57:02;12.80;99.90
14409;DHT22;7289;50.706;4.992;2023-11-21T09:59:32;12.80;99.90
14409;DHT22;7289;50.706;4.992;2023-11-21T10:02:02;12.90;99.90
14409;DHT22;7289;50.706;4.992;2023-11-21T10:04:31;13.00;99.90
14409;DHT22;7289;50.706;4.992;2023-11-21T10:07:02;13.20;99.90
14409;DHT22;7289;50.706;4.992;2023-11-21T10:09:31;13.20;99.90
14409;DHT22;7289;50.706;4.992;2023-11-21T10:11:59;13.40;99.90
14409;DHT22;7289;50.706;4.992;2023-11-21T10:14:30;13.40;99.90
14409;DHT22;7289;50.706;4.992;2023-11-21T10:16:59;13.40;99.90
14409;DHT22;7289;50.706;4.992;2023-11-21T10:19:27;13.30;99.90
14409;DHT22;7289;50.706;4.992;2023-11-21T10:21:56;13.30;99.90
14409;DHT22;7289;50.706;4.992;2023-11-21T10:24:29;13.30;99.90
14409;DHT22;7289;50.706;4.992;2023-11-21T10:27:11;13.30;99.90
14409;DHT22;7289;50.706;4.992;2023-11-21T10:29:40;13.40;99.90
14409;DHT22;7289;50.706;4.992;2023-11-21T10:32:09;13.40;99.90
14409;DHT22;7289;50.706;4.992;2023-11-21T10:34:37;13.40;99.90
14409;DHT22;7289;50.706;4.992;2023-11-21T10:37:11;12.90;99.90
14409;DHT22;7289;50.706;4.992;2023-11-21T10:39:41;12.90;99.90
14409;DHT22;7289;50.706;4.992;2023-11-21T10:42:11;12.90;99.90
14409;DHT22;7289;50.706;4.992;2023-11-21T10:44:41;12.60;99.90
14409;DHT22;7289;50.706;4.992;2023-11-21T10:47:11;12.60;99.90
14409;DHT22;7289;50.706;4.992;2023-11-21T10:49:40;12.70;99.90
14409;DHT22;7289;50.706;4.992;2023-11-21T10:52:09;12.80;99.90
14409;DHT22;7289;50.706;4.992;2023-11-21T10:54:46;12.90;99.90
14409;DHT22;7289;50.706;4.992;2023-11-21T10:57:17;13.00;99.90
14409;DHT22;7289;50.706;4.992;2023-11-21T10:59:47;13.10;99.90
14409;DHT22;7289;50.706;4.992;2023-11-21T11:02:22;13.20;99.90
14409;DHT22;7289;50.706;4.992;2023-11-21T11:04:53;13.30;99.90
14409;DHT22;7289;50.706;4.992;2023-11-21T11:07:26;13.40;99.90
14409;DHT22;7289;50.706;4.992;2023-11-21T11:09:58;13.40;99.90
14409;DHT22;7289;50.706;4.992;2023-11-21T11:12:28;13.50;99.90
14409;DHT22;7289;50.706;4.992;2023-11-21T11:14:58;13.50;99.90
14409;DHT22;7289;50.706;4.992;2023-11-21T11:17:29;13.50;99.90
14409;DHT22;7289;50.706;4.992;2023-11-21T11:20:01;13.30;99.90
14409;DHT22;7289;50.706;4.992;2023-11-21T11:22:37;13.20;99.90
14409;DHT22;7289;50.706;4.992;2023-11-21T11:25:25;13.00;99.90
14409;DHT22;7289;50.706;4.992;2023-11-21T11:28:03;12.80;99.90
14409;DHT22;7289;50.706;4.992;2023-11-21T11:30:41;12.30;99.90
14409;DHT22;7289;50.706;4.992;2023-11-21T11:33:21;12.00;99.90
14409;DHT22;7289;50.706;4.992;2023-11-21T11:35:58;11.70;99.90
14409;DHT22;7289;50.706;4.992;2023-11-21T11:38:32;11.60;99.90
14409;DHT22;7289;50.706;4.992;2023-11-21T11:41:05;11.70;99.90
14409;DHT22;7289;50.706;4.992;2023-11-21T11:43:34;11.70;99.90
14409;DHT22;7289;50.706;4.992;2023-11-21T11:46:11;11.70;99.90
14409;DHT22;7289;50.706;4.992;2023-11-21T11:48:42;11.70;99.90
14409;DHT22;7289;50.706;4.992;2023-11-21T11:51:13;11.60;99.90
14409;DHT22;7289;50.706;4.992;2023-11-21T11:53:46;11.60;99.90
14409;DHT22;7289;50.706;4.992;2023-11-21T11:56:27;11.60;99.90
14409;DHT22;7289;50.706;4.992;2023-11-21T11:58:58;11.60;99.90
14409;DHT22;7289;50.706;4.992;2023-11-21T12:01:32;11.70;99.90
14409;DHT22;7289;50.706;4.992;2023-11-21T12:04:26;11.60;99.90
14409;DHT22;7289;50.706;4.992;2023-11-21T12:07:02;11.60;99.90
14409;DHT22;7289;50.706;4.992;2023-11-21T12:09:31;11.60;99.90
14409;DHT22;7289;50.706;4.992;2023-11-21T12:12:02;11.60;99.90
14409;DHT22;7289;50.706;4.992;2023-11-21T12:14:31;11.60;99.90
14409;DHT22;7289;50.706;4.992;2023-11-21T12:17:00;11.50;99.90
14409;DHT22;7289;50.706;4.992;2023-11-21T12:19:29;11.40;99.90
14409;DHT22;7289;50.706;4.992;2023-11-21T12:21:59;11.30;99.90
14409;DHT22;7289;50.706;4.992;2023-11-21T12:24:27;11.20;99.90
14409;DHT22;7289;50.706;4.992;2023-11-21T12:26:56;11.20;99.90
14409;DHT22;7289;50.706;4.992;2023-11-21T12:29:26;11.20;99.90
14409;DHT22;7289;50.706;4.992;2023-11-21T12:31:56;11.30;99.90
14409;DHT22;7289;50.706;4.992;2023-11-21T12:34:25;11.30;99.90
14409;DHT22;7289;50.706;4.992;2023-11-21T12:36:54;11.40;99.90
14409;DHT22;7289;50.706;4.992;2023-11-21T12:39:22;11.60;99.90
14409;DHT22;7289;50.706;4.992;2023-11-21T12:41:51;11.60;99.90
14409;DHT22;7289;50.706;4.992;2023-11-21T12:44:19;11.50;99.90
14409;DHT22;7289;50.706;4.992;2023-11-21T12:46:52;11.50;99.90
14409;DHT22;7289;50.706;4.992;2023-11-21T12:49:20;11.60;99.90
14409;DHT22;7289;50.706;4.992;2023-11-21T12:51:49;11.70;99.90
14409;DHT22;7289;50.706;4.992;2023-11-21T12:54:18;11.50;99.90
14409;DHT22;7289;50.706;4.992;2023-11-21T12:56:46;11.40;99.90
14409;DHT22;7289;50.706;4.992;2023-11-21T12:59:16;11.60;99.90
14409;DHT22;7289;50.706;4.992;2023-11-21T13:01:46;11.60;99.90
14409;DHT22;7289;50.706;4.992;2023-11-21T13:04:20;11.70;99.90
14409;DHT22;7289;50.706;4.992;2023-11-21T13:06:48;11.90;99.90
14409;DHT22;7289;50.706;4.992;2023-11-21T13:09:17;11.80;99.90
14409;DHT22;7289;50.706;4.992;2023-11-21T13:11:49;12.00;99.90
14409;DHT22;7289;50.706;4.992;2023-11-21T13:14:16;11.90;99.90
14409;DHT22;7289;50.706;4.992;2023-11-21T13:16:45;11.80;99.90
14409;DHT22;7289;50.706;4.992;2023-11-21T13:19:14;12.00;99.90
14409;DHT22;7289;50.706;4.992;2023-11-21T13:21:44;12.00;99.90
14409;DHT22;7289;50.706;4.992;2023-11-21T13:24:12;12.00;99.90
14409;DHT22;7289;50.706;4.992;2023-11-21T13:26:41;12.30;99.90
14409;DHT22;7289;50.706;4.992;2023-11-21T13:29:09;12.40;99.90
14409;DHT22;7289;50.706;4.992;2023-11-21T13:31:40;12.40;99.90
14409;DHT22;7289;50.706;4.992;2023-11-21T13:34:09;12.20;99.90
14409;DHT22;7289;50.706;4.992;2023-11-21T13:36:48;12.30;99.90
14409;DHT22;7289;50.706;4.992;2023-11-21T13:39:21;12.40;99.90
14409;DHT22;7289;50.706;4.992;2023-11-21T13:41:49;12.50;99.90
14409;DHT22;7289;50.706;4.992;2023-11-21T13:44:22;12.40;99.90
14409;DHT22;7289;50.706;4.992;2023-11-21T13:47:01;12.40;99.90
14409;DHT22;7289;50.706;4.992;2023-11-21T13:49:32;12.30;99.90
14409;DHT22;7289;50.706;4.992;2023-11-21T13:52:09;12.40;99.90
14409;DHT22;7289;50.706;4.992;2023-11-21T13:54:42;12.20;99.90
14409;DHT22;7289;50.706;4.992;2023-11-21T13:57:10;12.10;99.90
14409;DHT22;7289;50.706;4.992;2023-11-21T13:59:39;12.20;99.90
14409;DHT22;7289;50.706;4.992;2023-11-21T14:02:07;12.00;99.90
14409;DHT22;7289;50.706;4.992;2023-11-21T14:04:45;12.00;99.90
14409;DHT22;7289;50.706;4.992;2023-11-21T14:07:24;12.00;99.90
14409;DHT22;7289;50.706;4.992;2023-11-21T14:10:04;12.20;99.90
14409;DHT22;7289;50.706;4.992;2023-11-21T14:12:35;12.10;99.90
14409;DHT22;7289;50.706;4.992;2023-11-21T14:15:06;12.00;99.90
14409;DHT22;7289;50.706;4.992;2023-11-21T14:17:37;12.10;99.90
14409;DHT22;7289;50.706;4.992;2023-11-21T14:20:09;12.00;99.90
14409;DHT22;7289;50.706;4.992;2023-11-21T14:22:45;12.00;99.90
14409;DHT22;7289;50.706;4.992;2023-11-21T14:25:14;12.00;99.90
14409;DHT22;7289;50.706;4.992;2023-11-21T14:27:44;12.00;99.90
14409;DHT22;7289;50.706;4.992;2023-11-21T14:30:13;12.10;99.90
14409;DHT22;7289;50.706;4.992;2023-11-21T14:32:45;12.20;99.90
14409;DHT22;7289;50.706;4.992;2023-11-21T14:35:14;12.30;99.90
14409;DHT22;7289;50.706;4.992;2023-11-21T14:37:44;12.20;99.90
14409;DHT22;7289;50.706;4.992;2023-11-21T14:40:13;12.20;99.90
14409;DHT22;7289;50.706;4.992;2023-11-21T14:42:45;12.30;99.90
14409;DHT22;7289;50.706;4.992;2023-11-21T14:45:15;12.20;99.90
14409;DHT22;7289;50.706;4.992;2023-11-21T14:47:47;12.30;99.90
14409;DHT22;7289;50.706;4.992;2023-11-21T14:50:23;12.20;99.90
14409;DHT22;7289;50.706;4.992;2023-11-21T14:53:17;12.20;99.90
14409;DHT22;7289;50.706;4.992;2023-11-21T14:56:02;12.30;99.90
14409;DHT22;7289;50.706;4.992;2023-11-21T14:58:31;12.20;99.90
14409;DHT22;7289;50.706;4.992;2023-11-21T15:00:59;12.30;99.90
14409;DHT22;7289;50.706;4.992;2023-11-21T15:03:30;12.30;99.90
14409;DHT22;7289;50.706;4.992;2023-11-21T15:06:17;12.40;99.90
14409;DHT22;7289;50.706;4.992;2023-11-21T15:12:39;12.40;99.90
14409;DHT22;7289;50.706;4.992;2023-11-21T15:15:08;12.50;99.90
14409;DHT22;7289;50.706;4.992;2023-11-21T15:17:37;12.40;99.90
14409;DHT22;7289;50.706;4.992;2023-11-21T15:20:07;12.30;99.90
14409;DHT22;7289;50.706;4.992;2023-11-21T15:22:36;12.30;99.90
14409;DHT22;7289;50.706;4.992;2023-11-21T15:25:05;12.30;99.90
14409;DHT22;7289;50.706;4.992;2023-11-21T15:27:39;12.10;99.90
14409;DHT22;7289;50.706;4.992;2023-11-21T15:30:08;11.90;99.90
14409;DHT22;7289;50.706;4.992;2023-11-21T15:32:37;11.90;99.90
14409;DHT22;7289;50.706;4.992;2023-11-21T15:35:08;11.80;99.90
14409;DHT22;7289;50.706;4.992;2023-11-21T15:37:40;11.80;99.90
14409;DHT22;7289;50.706;4.992;2023-11-21T15:40:11;11.90;99.90
14409;DHT22;7289;50.706;4.992;2023-11-21T15:42:42;11.90;99.90
14409;DHT22;7289;50.706;4.992;2023-11-21T15:45:12;11.80;99.90
14409;DHT22;7289;50.706;4.992;2023-11-21T15:47:40;11.90;99.90
14409;DHT22;7289;50.706;4.992;2023-11-21T15:50:09;12.00;99.90
14409;DHT22;7289;50.706;4.992;2023-11-21T15:52:37;12.00;99.90
14409;DHT22;7289;50.706;4.992;2023-11-21T15:55:24;12.00;99.90
14409;DHT22;7289;50.706;4.992;2023-11-21T15:57:54;12.10;99.90
14409;DHT22;7289;50.706;4.992;2023-11-21T16:00:22;12.00;99.90
14409;DHT22;7289;50.706;4.992;2023-11-21T16:02:51;12.10;99.90
14409;DHT22;7289;50.706;4.992;2023-11-21T16:05:22;12.10;99.90
14409;DHT22;7289;50.706;4.992;2023-11-21T16:07:53;12.10;99.90
14409;DHT22;7289;50.706;4.992;2023-11-21T16:10:22;12.00;99.90
14409;DHT22;7289;50.706;4.992;2023-11-21T16:12:50;11.90;99.90
14409;DHT22;7289;50.706;4.992;2023-11-21T16:15:20;12.00;99.90
14409;DHT22;7289;50.706;4.992;2023-11-21T16:17:49;12.00;99.90
14409;DHT22;7289;50.706;4.992;2023-11-21T16:20:18;11.90;99.90
14409;DHT22;7289;50.706;4.992;2023-11-21T16:22:47;11.80;99.90
14409;DHT22;7289;50.706;4.992;2023-11-21T16:25:16;11.50;99.90
14409;DHT22;7289;50.706;4.992;2023-11-21T16:27:45;11.30;99.90
14409;DHT22;7289;50.706;4.992;2023-11-21T16:30:13;11.30;99.90
14409;DHT22;7289;50.706;4.992;2023-11-21T16:32:43;11.30;99.90
14409;DHT22;7289;50.706;4.992;2023-11-21T16:35:11;11.30;99.90
14409;DHT22;7289;50.706;4.992;2023-11-21T16:37:40;11.30;99.90
14409;DHT22;7289;50.706;4.992;2023-11-21T16:40:10;11.20;99.90
14409;DHT22;7289;50.706;4.992;2023-11-21T16:42:39;11.30;99.90
14409;DHT22;7289;50.706;4.992;2023-11-21T16:45:08;11.30;99.90
14409;DHT22;7289;50.706;4.992;2023-11-21T16:47:36;11.20;99.90
14409;DHT22;7289;50.706;4.992;2023-11-21T16:50:09;11.20;99.90
14409;DHT22;7289;50.706;4.992;2023-11-21T16:52:40;11.20;99.90
14409;DHT22;7289;50.706;4.992;2023-11-21T16:55:10;11.20;99.90
14409;DHT22;7289;50.706;4.992;2023-11-21T16:57:39;11.20;99.90
14409;DHT22;7289;50.706;4.992;2023-11-21T17:00:08;11.10;99.90
14409;DHT22;7289;50.706;4.992;2023-11-21T17:02:40;11.00;99.90
14409;DHT22;7289;50.706;4.992;2023-11-21T17:05:10;11.00;99.90
14409;DHT22;7289;50.706;4.992;2023-11-21T17:07:39;11.10;99.90
14409;DHT22;7289;50.706;4.992;2023-11-21T17:10:08;11.10;99.90
14409;DHT22;7289;50.706;4.992;2023-11-21T17:12:39;11.10;99.90
14409;DHT22;7289;50.706;4.992;2023-11-21T17:15:08;11.00;99.90
14409;DHT22;7289;50.706;4.992;2023-11-21T17:17:37;11.00;99.90
14409;DHT22;7289;50.706;4.992;2023-11-21T17:20:07;11.00;99.90
14409;DHT22;7289;50.706;4.992;2023-11-21T17:22:39;10.90;99.90
14409;DHT22;7289;50.706;4.992;2023-11-21T17:25:09;10.70;99.90
14409;DHT22;7289;50.706;4.992;2023-11-21T17:27:37;10.70;99.90
14409;DHT22;7289;50.706;4.992;2023-11-21T17:30:07;10.60;99.90
14409;DHT22;7289;50.706;4.992;2023-11-21T17:32:36;10.70;99.90
14409;DHT22;7289;50.706;4.992;2023-11-21T17:35:05;10.80;99.90
14409;DHT22;7289;50.706;4.992;2023-11-21T17:37:35;10.80;99.90
14409;DHT22;7289;50.706;4.992;2023-11-21T17:40:06;10.90;99.90
14409;DHT22;7289;50.706;4.992;2023-11-21T17:42:34;10.90;99.90
14409;DHT22;7289;50.706;4.992;2023-11-21T17:45:03;10.90;99.90
14409;DHT22;7289;50.706;4.992;2023-11-21T17:47:32;10.90;99.90
14409;DHT22;7289;50.706;4.992;2023-11-21T17:50:00;10.80;99.90
14409;DHT22;7289;50.706;4.992;2023-11-21T17:52:29;10.80;99.90
14409;DHT22;7289;50.706;4.992;2023-11-21T17:54:58;10.80;99.90
14409;DHT22;7289;50.706;4.992;2023-11-21T17:57:27;10.70;99.90
14409;DHT22;7289;50.706;4.992;2023-11-21T17:59:56;10.70;99.90
14409;DHT22;7289;50.706;4.992;2023-11-21T18:02:24;10.70;99.90
14409;DHT22;7289;50.706;4.992;2023-11-21T18:04:53;10.70;99.90
14409;DHT22;7289;50.706;4.992;2023-11-21T18:07:22;10.60;99.90
14409;DHT22;7289;50.706;4.992;2023-11-21T18:09:50;10.60;99.90
14409;DHT22;7289;50.706;4.992;2023-11-21T18:12:19;10.50;99.90
14409;DHT22;7289;50.706;4.992;2023-11-21T18:14:49;10.40;99.90
14409;DHT22;7289;50.706;4.992;2023-11-21T18:17:19;10.50;99.90
14409;DHT22;7289;50.706;4.992;2023-11-21T18:19:47;10.40;99.90
14409;DHT22;7289;50.706;4.992;2023-11-21T18:22:21;10.60;99.90
14409;DHT22;7289;50.706;4.992;2023-11-21T18:24:52;10.50;99.90
14409;DHT22;7289;50.706;4.992;2023-11-21T18:27:25;10.50;99.90
14409;DHT22;7289;50.706;4.992;2023-11-21T18:29:57;10.40;99.90
14409;DHT22;7289;50.706;4.992;2023-11-21T18:32:26;10.40;99.90
14409;DHT22;7289;50.706;4.992;2023-11-21T18:34:55;10.30;99.90
14409;DHT22;7289;50.706;4.992;2023-11-21T18:37:23;10.30;99.90
14409;DHT22;7289;50.706;4.992;2023-11-21T18:39:52;10.10;99.90
14409;DHT22;7289;50.706;4.992;2023-11-21T18:42:20;10.10;99.90
14409;DHT22;7289;50.706;4.992;2023-11-21T18:44:51;9.90;99.90
14409;DHT22;7289;50.706;4.992;2023-11-21T18:47:27;9.90;99.90
14409;DHT22;7289;50.706;4.992;2023-11-21T18:49:55;9.90;99.90
14409;DHT22;7289;50.706;4.992;2023-11-21T18:52:24;10.00;99.90
14409;DHT22;7289;50.706;4.992;2023-11-21T18:54:56;10.00;99.90
14409;DHT22;7289;50.706;4.992;2023-11-21T18:57:26;10.00;99.90
14409;DHT22;7289;50.706;4.992;2023-11-21T18:59:55;10.00;99.90
14409;DHT22;7289;50.706;4.992;2023-11-21T19:02:23;10.00;99.90
14409;DHT22;7289;50.706;4.992;2023-11-21T19:04:54;10.10;99.90
14409;DHT22;7289;50.706;4.992;2023-11-21T19:07:23;10.20;99.90
14409;DHT22;7289;50.706;4.992;2023-11-21T19:09:53;10.10;99.90
14409;DHT22;7289;50.706;4.992;2023-11-21T19:12:22;10.10;99.90
14409;DHT22;7289;50.706;4.992;2023-11-21T19:14:50;10.00;99.90
14409;DHT22;7289;50.706;4.992;2023-11-21T19:17:19;10.00;99.90
14409;DHT22;7289;50.706;4.992;2023-11-21T19:19:48;10.00;99.90
14409;DHT22;7289;50.706;4.992;2023-11-21T19:22:18;9.90;99.90
14409;DHT22;7289;50.706;4.992;2023-11-21T19:24:47;9.90;99.90
14409;DHT22;7289;50.706;4.992;2023-11-21T19:27:16;10.00;99.90
14409;DHT22;7289;50.706;4.992;2023-11-21T19:29:45;10.00;99.90
14409;DHT22;7289;50.706;4.992;2023-11-21T19:32:13;10.00;99.90
14409;DHT22;7289;50.706;4.992;2023-11-21T19:34:41;9.80;99.90
14409;DHT22;7289;50.706;4.992;2023-11-21T19:37:11;9.80;99.90
14409;DHT22;7289;50.706;4.992;2023-11-21T19:39:41;9.70;99.90
14409;DHT22;7289;50.706;4.992;2023-11-21T19:42:10;9.60;99.90
14409;DHT22;7289;50.706;4.992;2023-11-21T19:44:41;9.50;99.90
14409;DHT22;7289;50.706;4.992;2023-11-21T19:47:11;9.40;99.90
14409;DHT22;7289;50.706;4.992;2023-11-21T19:49:40;9.30;99.90
14409;DHT22;7289;50.706;4.992;2023-11-21T19:52:08;9.20;99.90
14409;DHT22;7289;50.706;4.992;2023-11-21T19:54:37;9.20;99.90
14409;DHT22;7289;50.706;4.992;2023-11-21T19:57:07;9.20;99.90
14409;DHT22;7289;50.706;4.992;2023-11-21T19:59:39;9.20;99.90
14409;DHT22;7289;50.706;4.992;2023-11-21T20:02:10;9.30;99.90
14409;DHT22;7289;50.706;4.992;2023-11-21T20:04:38;9.30;99.90
14409;DHT22;7289;50.706;4.992;2023-11-21T20:07:11;9.20;99.90
14409;DHT22;7289;50.706;4.992;2023-11-21T20:09:41;9.30;99.90
14409;DHT22;7289;50.706;4.992;2023-11-21T20:12:10;9.10;99.90
14409;DHT22;7289;50.706;4.992;2023-11-21T20:14:39;9.00;99.90
14409;DHT22;7289;50.706;4.992;2023-11-21T20:17:07;9.00;99.90
14409;DHT22;7289;50.706;4.992;2023-11-21T20:19:36;9.00;99.90
14409;DHT22;7289;50.706;4.992;2023-11-21T20:22:04;9.00;99.90
14409;DHT22;7289;50.706;4.992;2023-11-21T20:24:33;9.00;99.90
14409;DHT22;7289;50.706;4.992;2023-11-21T20:27:03;8.90;99.90
14409;DHT22;7289;50.706;4.992;2023-11-21T20:29:33;8.80;99.90
14409;DHT22;7289;50.706;4.992;2023-11-21T20:32:01;8.70;99.90
14409;DHT22;7289;50.706;4.992;2023-11-21T20:34:32;8.60;99.90
14409;DHT22;7289;50.706;4.992;2023-11-21T20:37:00;8.60;99.90
14409;DHT22;7289;50.706;4.992;2023-11-21T20:39:30;8.60;99.90
14409;DHT22;7289;50.706;4.992;2023-11-21T20:42:01;8.60;99.90
14409;DHT22;7289;50.706;4.992;2023-11-21T20:44:29;8.60;99.90
14409;DHT22;7289;50.706;4.992;2023-11-21T20:46:59;8.60;99.90
14409;DHT22;7289;50.706;4.992;2023-11-21T20:49:38;8.60;99.90
14409;DHT22;7289;50.706;4.992;2023-11-21T20:52:15;8.60;99.90
14409;DHT22;7289;50.706;4.992;2023-11-21T20:54:43;8.70;99.90
14409;DHT22;7289;50.706;4.992;2023-11-21T20:57:12;8.60;99.90
14409;DHT22;7289;50.706;4.992;2023-11-21T20:59:41;8.60;99.90
14409;DHT22;7289;50.706;4.992;2023-11-21T21:02:11;8.60;99.90
14409;DHT22;7289;50.706;4.992;2023-11-21T21:04:40;8.60;99.90
14409;DHT22;7289;50.706;4.992;2023-11-21T21:07:08;8.40;99.90
14409;DHT22;7289;50.706;4.992;2023-11-21T21:09:36;8.50;99.90
14409;DHT22;7289;50.706;4.992;2023-11-21T21:12:06;8.50;99.90
14409;DHT22;7289;50.706;4.992;2023-11-21T21:14:34;8.40;99.90
14409;DHT22;7289;50.706;4.992;2023-11-21T21:17:02;8.20;99.90
14409;DHT22;7289;50.706;4.992;2023-11-21T21:19:33;7.90;99.90
14409;DHT22;7289;50.706;4.992;2023-11-21T21:22:02;7.90;99.90
14409;DHT22;7289;50.706;4.992;2023-11-21T21:24:31;7.90;99.90
14409;DHT22;7289;50.706;4.992;2023-11-21T21:27:00;7.80;99.90
14409;DHT22;7289;50.706;4.992;2023-11-21T21:29:28;7.90;99.90
14409;DHT22;7289;50.706;4.992;2023-11-21T21:31:56;8.00;99.90
14409;DHT22;7289;50.706;4.992;2023-11-21T21:34:25;8.10;99.90
14409;DHT22;7289;50.706;4.992;2023-11-21T21:36:54;7.90;99.90
14409;DHT22;7289;50.706;4.992;2023-11-21T21:39:23;7.80;99.90
14409;DHT22;7289;50.706;4.992;2023-11-21T21:41:52;7.60;99.90
14409;DHT22;7289;50.706;4.992;2023-11-21T21:44:21;7.50;99.90
14409;DHT22;7289;50.706;4.992;2023-11-21T21:46:49;7.30;99.90
14409;DHT22;7289;50.706;4.992;2023-11-21T21:49:18;7.40;99.90
14409;DHT22;7289;50.706;4.992;2023-11-21T21:51:48;7.30;99.90
14409;DHT22;7289;50.706;4.992;2023-11-21T21:54:17;7.30;99.90
14409;DHT22;7289;50.706;4.992;2023-11-21T21:56:46;7.30;99.90
14409;DHT22;7289;50.706;4.992;2023-11-21T21:59:14;7.20;99.90
14409;DHT22;7289;50.706;4.992;2023-11-21T22:01:43;7.10;99.90
14409;DHT22;7289;50.706;4.992;2023-11-21T22:04:13;7.00;99.90
14409;DHT22;7289;50.706;4.992;2023-11-21T22:06:42;7.00;99.90
14409;DHT22;7289;50.706;4.992;2023-11-21T22:09:11;7.00;99.90
14409;DHT22;7289;50.706;4.992;2023-11-21T22:11:41;7.10;99.90
14409;DHT22;7289;50.706;4.992;2023-11-21T22:14:10;7.10;99.90
14409;DHT22;7289;50.706;4.992;2023-11-21T22:16:38;7.10;99.90
14409;DHT22;7289;50.706;4.992;2023-11-21T22:19:06;7.20;99.90
14409;DHT22;7289;50.706;4.992;2023-11-21T22:21:35;7.20;99.90
14409;DHT22;7289;50.706;4.992;2023-11-21T22:24:04;7.20;99.90
14409;DHT22;7289;50.706;4.992;2023-11-21T22:26:34;7.10;99.90
14409;DHT22;7289;50.706;4.992;2023-11-21T22:29:04;7.10;99.90
14409;DHT22;7289;50.706;4.992;2023-11-21T22:31:33;7.10;99.90
14409;DHT22;7289;50.706;4.992;2023-11-21T22:34:03;7.10;99.90
14409;DHT22;7289;50.706;4.992;2023-11-21T22:36:32;7.10;99.90
14409;DHT22;7289;50.706;4.992;2023-11-21T22:39:00;7.00;99.90
14409;DHT22;7289;50.706;4.992;2023-11-21T22:41:29;7.00;99.90
14409;DHT22;7289;50.706;4.992;2023-11-21T22:43:57;6.90;99.90
14409;DHT22;7289;50.706;4.992;2023-11-21T22:46:27;6.80;99.90
14409;DHT22;7289;50.706;4.992;2023-11-21T22:48:56;6.80;99.90
14409;DHT22;7289;50.706;4.992;2023-11-21T22:51:25;6.70;99.90
14409;DHT22;7289;50.706;4.992;2023-11-21T22:53:54;6.90;99.90
14409;DHT22;7289;50.706;4.992;2023-11-21T22:56:23;6.90;99.90
14409;DHT22;7289;50.706;4.992;2023-11-21T22:58:53;7.00;99.90
14409;DHT22;7289;50.706;4.992;2023-11-21T23:01:24;6.90;99.90
14409;DHT22;7289;50.706;4.992;2023-11-21T23:03:54;6.90;99.90
14409;DHT22;7289;50.706;4.992;2023-11-21T23:06:22;6.90;99.90
14409;DHT22;7289;50.706;4.992;2023-11-21T23:08:51;6.80;99.90
14409;DHT22;7289;50.706;4.992;2023-11-21T23:11:20;6.50;99.90
14409;DHT22;7289;50.706;4.992;2023-11-21T23:13:48;6.40;99.90
14409;DHT22;7289;50.706;4.992;2023-11-21T23:16:17;6.40;99.90
14409;DHT22;7289;50.706;4.992;2023-11-21T23:18:46;6.30;99.90
14409;DHT22;7289;50.706;4.992;2023-11-21T23:21:18;6.30;99.90
14409;DHT22;7289;50.706;4.992;2023-11-21T23:23:46;6.30;99.90
14409;DHT22;7289;50.706;4.992;2023-11-21T23:26:15;6.30;99.90
14409;DHT22;7289;50.706;4.992;2023-11-21T23:28:45;6.40;99.90
14409;DHT22;7289;50.706;4.992;2023-11-21T23:31:13;6.30;99.90
14409;DHT22;7289;50.706;4.992;2023-11-21T23:33:42;6.20;99.90
14409;DHT22;7289;50.706;4.992;2023-11-21T23:36:11;6.20;99.90
14409;DHT22;7289;50.706;4.992;2023-11-21T23:38:41;6.20;99.90
14409;DHT22;7289;50.706;4.992;2023-11-21T23:41:09;6.00;99.90
14409;DHT22;7289;50.706;4.992;2023-11-21T23:43:38;6.00;99.90
14409;DHT22;7289;50.706;4.992;2023-11-21T23:46:06;5.90;99.90
14409;DHT22;7289;50.706;4.992;2023-11-21T23:48:34;5.90;99.90
14409;DHT22;7289;50.706;4.992;2023-11-21T23:51:03;5.90;99.90
14409;DHT22;7289;50.706;4.992;2023-11-21T23:53:32;5.90;99.90
14409;DHT22;7289;50.706;4.992;2023-11-21T23:56:03;5.90;99.90
14409;DHT22;7289;50.706;4.992;2023-11-21T23:58:32;5.80;99.90
